Time;durP1;ratioP1;P1;durP2;ratioP2;P2;SDS_P1;SDS_P2;PMS_P1;PMS_P2;Temp;Humidity;BMP_temperature;BMP_pressure;BME280_temperature;BME280_humidity;BME280_pressure;Samples;Min_cycle;Max_cycle;Signal;HPM_P1;HPM_P2
2021/11/25 00:00:20;;;;;;;38.93;11.40;;;;;;;;;;5022281;28;20034;-57
2021/11/25 00:02:46;;;;;;;36.67;10.68;;;;;;;;;;4983380;28;20280;-57
2021/11/25 00:05:13;;;;;;;39.55;10.70;;;;;;;;;;4986807;28;20038;-51
2021/11/25 00:07:40;;;;;;;33.35;11.00;;;;;;;;;;4983502;28;20078;-52
2021/11/25 00:10:07;;;;;;;34.15;11.32;;;;;;;;;;4997114;28;20045;-57
2021/11/25 00:12:34;;;;;;;30.33;10.52;;;;;;;;;;5001861;28;20045;-56
2021/11/25 00:15:02;;;;;;;32.70;11.45;;;;;;;;;;5005554;28;20050;-53
2021/11/25 00:17:29;;;;;;;32.63;11.75;;;;;;;;;;4991838;28;20057;-57
2021/11/25 00:19:56;;;;;;;32.75;10.75;;;;;;;;;;5003148;28;20046;-58
2021/11/25 00:22:22;;;;;;;35.30;10.63;;;;;;;;;;5010373;28;20042;-58
2021/11/25 00:24:49;;;;;;;35.95;10.88;;;;;;;;;;5006614;28;20157;-59
2021/11/25 00:27:15;;;;;;;38.97;11.15;;;;;;;;;;4999628;28;20045;-57
2021/11/25 00:29:42;;;;;;;31.92;11.23;;;;;;;;;;5006291;28;20038;-59
2021/11/25 00:32:10;;;;;;;31.45;10.38;;;;;;;;;;5001762;28;20037;-55
2021/11/25 00:34:36;;;;;;;38.10;11.57;;;;;;;;;;5002718;28;20038;-57
2021/11/25 00:37:03;;;;;;;38.70;11.20;;;;;;;;;;4999105;28;20092;-57
2021/11/25 00:39:30;;;;;;;35.17;10.95;;;;;;;;;;4984695;28;20034;-54
2021/11/25 00:41:56;;;;;;;32.90;11.07;;;;;;;;;;4984293;28;20166;-56
2021/11/25 00:44:22;;;;;;;34.20;11.35;;;;;;;;;;5002462;28;20045;-56
2021/11/25 00:46:49;;;;;;;36.83;11.13;;;;;;;;;;5005377;28;20046;-51
2021/11/25 00:49:17;;;;;;;40.38;11.57;;;;;;;;;;4997527;28;20164;-55
2021/11/25 00:51:44;;;;;;;32.92;11.52;;;;;;;;;;5004361;28;20042;-56
2021/11/25 00:54:10;;;;;;;32.38;10.85;;;;;;;;;;4999563;28;20088;-55
2021/11/25 00:56:37;;;;;;;31.35;11.07;;;;;;;;;;5003685;28;20038;-50
2021/11/25 00:59:03;;;;;;;33.08;11.20;;;;;;;;;;5001482;28;20045;-53
2021/11/25 01:01:30;;;;;;;28.13;11.10;;;;;;;;;;5020838;28;20037;-58
2021/11/25 01:03:56;;;;;;;32.30;11.52;;;;;;;;;;4990626;28;20086;-55
2021/11/25 01:06:26;;;;;;;29.00;10.45;;;;;;;;;;4985488;28;20097;-55
2021/11/25 01:08:53;;;;;;;38.40;12.15;;;;;;;;;;4987213;28;20124;-53
2021/11/25 01:11:21;;;;;;;32.22;11.88;;;;;;;;;;5004471;28;20058;-53
2021/11/25 01:13:48;;;;;;;32.08;11.38;;;;;;;;;;4997487;28;20046;-54
2021/11/25 01:16:14;;;;;;;32.33;11.02;;;;;;;;;;4984979;28;20034;-56
2021/11/25 01:18:42;;;;;;;29.48;10.95;;;;;;;;;;4981988;28;20046;-55
2021/11/25 01:21:08;;;;;;;37.95;12.10;;;;;;;;;;5020776;28;20041;-57
2021/11/25 01:23:36;;;;;;;36.20;12.68;;;;;;;;;;5019195;28;20041;-56
2021/11/25 01:26:03;;;;;;;29.77;11.43;;;;;;;;;;5003947;28;20042;-53
2021/11/25 01:28:30;;;;;;;40.25;11.52;;;;;;;;;;5004449;28;20069;-54
2021/11/25 01:31:00;;;;;;;36.10;12.85;;;;;;;;;;5001179;28;20066;-57
2021/11/25 01:33:27;;;;;;;34.50;11.73;;;;;;;;;;5004843;28;20123;-52
2021/11/25 01:35:54;;;;;;;34.67;13.23;;;;;;;;;;5014950;28;20037;-56
2021/11/25 01:38:20;;;;;;;28.63;11.05;;;;;;;;;;5005516;28;20048;-57
2021/11/25 01:40:48;;;;;;;35.17;11.90;;;;;;;;;;5000205;28;20045;-56
2021/11/25 01:43:15;;;;;;;38.28;12.15;;;;;;;;;;5005807;28;20025;-56
2021/11/25 01:45:42;;;;;;;32.95;10.82;;;;;;;;;;4993275;28;20026;-55
2021/11/25 01:48:08;;;;;;;34.25;11.60;;;;;;;;;;5001845;28;20046;-56
2021/11/25 01:50:35;;;;;;;33.13;11.68;;;;;;;;;;4987984;28;20049;-57
2021/11/25 01:53:03;;;;;;;35.67;12.32;;;;;;;;;;5019721;28;20037;-56
2021/11/25 01:55:30;;;;;;;33.97;12.27;;;;;;;;;;5018611;28;20042;-58
2021/11/25 01:57:59;;;;;;;39.80;12.30;;;;;;;;;;5004655;28;20053;-56
2021/11/25 02:00:27;;;;;;;33.35;12.10;;;;;;;;;;4999922;28;20061;-54
2021/11/25 02:02:55;;;;;;;33.05;11.93;;;;;;;;;;5003990;28;20052;-55
2021/11/25 02:05:21;;;;;;;32.15;11.68;;;;;;;;;;5000823;28;20037;-56
2021/11/25 02:07:48;;;;;;;26.65;10.35;;;;;;;;;;5004834;28;20048;-57
2021/11/25 02:10:15;;;;;;;22.75;9.02;;;;;;;;;;5003619;28;20054;-54
2021/11/25 02:12:42;;;;;;;33.03;11.50;;;;;;;;;;4999332;28;20038;-56
2021/11/25 02:15:11;;;;;;;40.10;12.73;;;;;;;;;;5005243;28;20042;-52
2021/11/25 02:17:37;;;;;;;;;;;;;;;;;;4983763;28;20057;-56
2021/11/25 02:20:04;;;;;;;32.92;10.02;;;;;;;;;;4982585;28;20293;-56
2021/11/25 02:22:32;;;;;;;34.97;12.50;;;;;;;;;;4997889;28;20050;-55
2021/11/25 02:24:59;;;;;;;33.13;11.95;;;;;;;;;;5001687;28;20045;-55
2021/11/25 02:27:25;;;;;;;38.47;13.27;;;;;;;;;;4991715;28;20102;-56
2021/11/25 02:29:51;;;;;;;30.40;11.07;;;;;;;;;;5003970;28;20038;-56
2021/11/25 02:32:28;;;;;;;37.72;12.02;;;;;;;;;;4994343;28;20042;-56
2021/11/25 02:34:54;;;;;;;34.75;12.07;;;;;;;;;;5003456;28;20041;-55
2021/11/25 02:37:21;;;;;;;34.00;12.68;;;;;;;;;;5021277;28;20058;-55
2021/11/25 02:39:48;;;;;;;27.10;10.98;;;;;;;;;;5007400;28;20042;-56
2021/11/25 02:42:16;;;;;;;27.10;10.90;;;;;;;;;;5002964;28;20037;-56
2021/11/25 02:44:43;;;;;;;32.47;12.20;;;;;;;;;;5006968;28;20283;-56
2021/11/25 02:47:09;;;;;;;28.27;11.32;;;;;;;;;;5019541;28;20057;-58
2021/11/25 02:49:36;;;;;;;29.48;11.82;;;;;;;;;;5008156;28;20057;-56
2021/11/25 02:52:02;;;;;;;30.63;10.95;;;;;;;;;;5003773;28;20038;-57
2021/11/25 02:54:30;;;;;;;31.48;12.00;;;;;;;;;;4986462;28;20038;-51
2021/11/25 02:56:57;;;;;;;29.48;11.20;;;;;;;;;;4990150;28;20068;-56
2021/11/25 02:59:24;;;;;;;32.33;11.27;;;;;;;;;;5001119;28;20038;-55
2021/11/25 03:01:50;;;;;;;31.73;10.82;;;;;;;;;;5004074;28;20034;-53
2021/11/25 03:04:17;;;;;;;32.83;11.23;;;;;;;;;;4986915;28;20042;-54
2021/11/25 03:06:43;;;;;;;27.63;12.05;;;;;;;;;;4985121;28;20038;-54
2021/11/25 03:09:13;;;;;;;32.20;12.45;;;;;;;;;;4997428;28;20120;-58
2021/11/25 03:11:39;;;;;;;31.58;12.35;;;;;;;;;;5005563;28;20061;-57
2021/11/25 03:14:08;;;;;;;33.65;12.35;;;;;;;;;;5002352;28;20061;-58
2021/11/25 03:16:34;;;;;;;;;;;;;;;;;;5005425;28;20073;-58
2021/11/25 03:19:03;;;;;;;23.42;9.07;;;;;;;;;;5000157;28;19976;-58
2021/11/25 03:21:30;;;;;;;30.55;11.52;;;;;;;;;;5003679;28;20042;-54
2021/11/25 03:23:57;;;;;;;33.15;11.82;;;;;;;;;;4994553;28;20042;-54
2021/11/25 03:26:24;;;;;;;25.63;10.38;;;;;;;;;;5011880;28;20103;-55
2021/11/25 03:28:53;;;;;;;28.08;11.48;;;;;;;;;;4997018;28;20317;-56
2021/11/25 03:31:19;;;;;;;;;;;;;;;;;;5002520;28;20058;-54
2021/11/25 03:33:48;;;;;;;25.30;9.63;;;;;;;;;;4988157;28;19953;-57
2021/11/25 03:36:14;;;;;;;27.15;10.68;;;;;;;;;;5005091;28;20131;-55
2021/11/25 03:38:41;;;;;;;30.30;11.77;;;;;;;;;;5003647;28;20172;-54
2021/11/25 03:41:09;;;;;;;32.60;12.05;;;;;;;;;;4987099;28;20117;-54
2021/11/25 03:43:35;;;;;;;29.38;11.85;;;;;;;;;;5004541;28;20065;-57
2021/11/25 03:46:02;;;;;;;23.88;9.48;;;;;;;;;;5001182;28;20123;-57
2021/11/25 03:48:29;;;;;;;33.75;11.35;;;;;;;;;;5005262;28;20042;-56
2021/11/25 03:50:57;;;;;;;31.90;12.43;;;;;;;;;;5000585;28;20041;-56
2021/11/25 03:53:24;;;;;;;29.80;11.75;;;;;;;;;;5021291;28;20042;-56
2021/11/25 03:55:50;;;;;;;27.17;11.85;;;;;;;;;;4991049;28;20050;-57
2021/11/25 03:58:17;;;;;;;26.77;10.38;;;;;;;;;;4984954;28;20104;-55
2021/11/25 04:00:43;;;;;;;30.27;11.82;;;;;;;;;;4982357;28;20041;-55
2021/11/25 04:03:10;;;;;;;29.15;11.02;;;;;;;;;;4986830;28;20047;-58
2021/11/25 04:05:36;;;;;;;26.80;10.93;;;;;;;;;;5000786;28;20057;-58
2021/11/25 04:08:05;;;;;;;26.98;11.65;;;;;;;;;;4986540;28;20124;-55
2021/11/25 04:10:31;;;;;;;25.25;11.10;;;;;;;;;;4983187;28;20052;-58
2021/11/25 04:12:58;;;;;;;30.58;12.15;;;;;;;;;;4998403;28;20056;-56
2021/11/25 04:15:24;;;;;;;32.78;12.27;;;;;;;;;;5002188;28;20042;-57
2021/11/25 04:17:54;;;;;;;27.83;11.60;;;;;;;;;;5005253;28;20052;-57
2021/11/25 04:20:20;;;;;;;35.08;12.25;;;;;;;;;;5005262;28;20124;-49
2021/11/25 04:22:47;;;;;;;29.48;11.70;;;;;;;;;;4983712;28;20042;-55
2021/11/25 04:25:15;;;;;;;33.85;12.88;;;;;;;;;;4986443;28;20088;-57
2021/11/25 04:27:41;;;;;;;36.33;13.47;;;;;;;;;;4999574;28;20050;-55
2021/11/25 04:30:11;;;;;;;31.90;13.10;;;;;;;;;;5004641;28;20114;-53
2021/11/25 04:35:32;;;;;;;32.67;12.60;;;;;;;;;;5007705;28;20056;-56
2021/11/25 04:37:59;;;;;;;30.20;12.07;;;;;;;;;;4999452;28;20121;-54
2021/11/25 04:40:28;;;;;;;29.08;11.52;;;;;;;;;;5004119;28;20052;-53
2021/11/25 04:42:54;;;;;;;29.55;11.65;;;;;;;;;;5002059;28;20046;-56
2021/11/25 04:45:21;;;;;;;28.92;12.02;;;;;;;;;;5005276;28;20033;-58
2021/11/25 04:47:48;;;;;;;29.23;11.57;;;;;;;;;;4991086;28;20059;-51
2021/11/25 04:50:15;;;;;;;29.77;11.77;;;;;;;;;;4985362;28;20046;-54
2021/11/25 04:52:42;;;;;;;28.77;11.45;;;;;;;;;;4990312;28;20503;-56
2021/11/25 04:55:08;;;;;;;29.75;12.52;;;;;;;;;;5004147;28;20049;-53
2021/11/25 04:57:36;;;;;;;26.52;10.82;;;;;;;;;;4995277;28;20045;-56
2021/11/25 05:00:04;;;;;;;30.38;12.00;;;;;;;;;;4985807;28;20050;-55
2021/11/25 05:02:30;;;;;;;20.92;9.80;;;;;;;;;;4993599;28;20054;-55
2021/11/25 05:04:56;;;;;;;31.45;12.38;;;;;;;;;;4984054;28;20114;-54
2021/11/25 05:07:23;;;;;;;30.73;12.50;;;;;;;;;;4982360;28;20046;-56
2021/11/25 05:09:49;;;;;;;37.67;13.95;;;;;;;;;;5003642;28;20045;-56
2021/11/25 05:12:16;;;;;;;31.90;12.10;;;;;;;;;;5004818;28;20151;-56
2021/11/25 05:14:44;;;;;;;24.67;11.70;;;;;;;;;;4983692;28;20031;-56
2021/11/25 05:17:10;;;;;;;35.53;13.93;;;;;;;;;;4984381;28;20132;-54
2021/11/25 05:19:37;;;;;;;28.63;11.98;;;;;;;;;;4981659;28;20034;-54
2021/11/25 05:22:04;;;;;;;29.52;12.00;;;;;;;;;;4985340;28;20038;-55
2021/11/25 05:24:30;;;;;;;34.28;12.65;;;;;;;;;;4997842;28;20041;-53
2021/11/25 05:26:57;;;;;;;27.88;11.55;;;;;;;;;;5005920;28;20112;-55
2021/11/25 05:29:23;;;;;;;27.45;11.05;;;;;;;;;;4999555;28;20045;-55
2021/11/25 05:31:51;;;;;;;25.05;10.43;;;;;;;;;;5005660;28;20524;-55
2021/11/25 05:34:20;;;;;;;23.17;10.57;;;;;;;;;;4993335;28;20038;-52
2021/11/25 05:36:47;;;;;;;;;;;;;;;;;;4985849;28;20038;-52
2021/11/25 05:39:15;;;;;;;29.30;9.98;;;;;;;;;;4980305;28;19929;-56
2021/11/25 05:41:42;;;;;;;27.25;11.05;;;;;;;;;;4982022;28;20035;-56
2021/11/25 05:44:09;;;;;;;30.77;10.98;;;;;;;;;;4967497;28;20078;-54
2021/11/25 05:46:35;;;;;;;27.05;11.45;;;;;;;;;;5003870;28;20049;-56
2021/11/25 05:49:05;;;;;;;32.20;12.25;;;;;;;;;;4999029;28;20056;-55
2021/11/25 05:51:31;;;;;;;31.80;11.75;;;;;;;;;;4983884;28;20120;-55
2021/11/25 05:53:58;;;;;;;21.15;9.27;;;;;;;;;;4983953;28;20369;-54
2021/11/25 05:56:24;;;;;;;36.28;13.52;;;;;;;;;;4981065;28;20098;-56
2021/11/25 05:58:51;;;;;;;30.90;12.85;;;;;;;;;;4984396;28;20066;-58
2021/11/25 06:01:17;;;;;;;28.00;10.68;;;;;;;;;;4998718;28;20038;-55
2021/11/25 06:03:45;;;;;;;28.80;11.18;;;;;;;;;;5004436;28;20044;-58
2021/11/25 06:06:13;;;;;;;29.42;12.23;;;;;;;;;;4997655;28;20045;-55
2021/11/25 06:08:40;;;;;;;27.42;11.98;;;;;;;;;;5005938;28;20123;-53
2021/11/25 06:11:06;;;;;;;26.88;11.50;;;;;;;;;;4999079;28;20045;-54
2021/11/25 06:13:33;;;;;;;27.98;10.85;;;;;;;;;;5007728;28;20058;-54
2021/11/25 06:15:59;;;;;;;25.02;10.98;;;;;;;;;;5003655;28;20114;-54
2021/11/25 06:18:26;;;;;;;27.15;11.15;;;;;;;;;;5006852;28;20139;-51
2021/11/25 06:20:52;;;;;;;23.70;9.88;;;;;;;;;;5004487;28;20073;-56
2021/11/25 06:23:21;;;;;;;26.65;10.77;;;;;;;;;;5006428;28;20057;-53
2021/11/25 06:25:47;;;;;;;24.80;10.20;;;;;;;;;;4998737;28;20038;-53
2021/11/25 06:28:14;;;;;;;28.63;12.20;;;;;;;;;;5009369;28;20049;-55
2021/11/25 06:30:40;;;;;;;36.13;13.50;;;;;;;;;;5007149;28;20099;-58
2021/11/25 06:33:07;;;;;;;28.65;12.23;;;;;;;;;;5005773;28;20045;-57
2021/11/25 06:35:34;;;;;;;26.80;11.80;;;;;;;;;;5004871;28;20139;-54
2021/11/25 06:38:00;;;;;;;27.80;11.93;;;;;;;;;;5001061;28;20052;-55
2021/11/25 06:40:29;;;;;;;29.55;13.07;;;;;;;;;;5006352;28;20057;-55
2021/11/25 06:42:56;;;;;;;29.60;13.32;;;;;;;;;;4998030;28;20168;-54
2021/11/25 06:45:22;;;;;;;29.30;12.73;;;;;;;;;;5003829;28;20038;-58
2021/11/25 06:47:50;;;;;;;30.08;12.60;;;;;;;;;;5003021;28;20042;-56
2021/11/25 06:50:17;;;;;;;29.37;12.53;;;;;;;;;;5006716;28;20041;-57
2021/11/25 06:52:44;;;;;;;38.42;12.93;;;;;;;;;;5005214;28;20072;-57
2021/11/25 06:55:11;;;;;;;30.33;13.05;;;;;;;;;;5022731;28;20056;-55
2021/11/25 06:57:40;;;;;;;30.17;13.70;;;;;;;;;;5017357;28;20057;-56
2021/11/25 07:00:08;;;;;;;35.13;14.20;;;;;;;;;;5002154;28;20038;-56
2021/11/25 07:02:35;;;;;;;31.35;13.40;;;;;;;;;;4993035;28;20086;-58
2021/11/25 07:05:02;;;;;;;33.65;13.20;;;;;;;;;;4983013;28;20038;-55
2021/11/25 07:07:29;;;;;;;38.10;14.65;;;;;;;;;;4991459;28;20180;-56
2021/11/25 07:09:55;;;;;;;37.28;14.93;;;;;;;;;;5003367;28;20045;-56
2021/11/25 07:12:22;;;;;;;30.65;13.77;;;;;;;;;;4997896;28;20042;-57
2021/11/25 07:14:50;;;;;;;31.10;12.93;;;;;;;;;;4993517;28;20077;-56
2021/11/25 07:17:17;;;;;;;31.77;13.10;;;;;;;;;;5004135;28;20052;-56
2021/11/25 07:19:43;;;;;;;29.95;12.32;;;;;;;;;;5000152;28;20082;-54
2021/11/25 07:22:10;;;;;;;30.80;13.90;;;;;;;;;;4986883;28;20034;-58
2021/11/25 07:24:36;;;;;;;29.65;12.25;;;;;;;;;;4984245;28;20124;-57
2021/11/25 07:27:03;;;;;;;36.58;13.55;;;;;;;;;;4988916;28;20111;-55
2021/11/25 07:29:30;;;;;;;33.65;14.75;;;;;;;;;;5001423;28;20057;-57
2021/11/25 07:31:58;;;;;;;33.05;13.02;;;;;;;;;;4983684;28;20057;-54
2021/11/25 07:34:24;;;;;;;32.03;13.27;;;;;;;;;;4985702;28;20062;-56
2021/11/25 07:36:51;;;;;;;28.70;12.10;;;;;;;;;;4994317;28;20034;-56
2021/11/25 07:39:19;;;;;;;29.95;10.95;;;;;;;;;;5002004;28;20048;-56
2021/11/25 07:41:45;;;;;;;29.83;13.27;;;;;;;;;;5005961;28;20038;-53
2021/11/25 07:44:11;;;;;;;26.52;11.48;;;;;;;;;;5018530;28;20057;-52
2021/11/25 07:46:39;;;;;;;35.15;13.27;;;;;;;;;;5005599;28;20052;-55
2021/11/25 07:49:07;;;;;;;27.20;11.90;;;;;;;;;;5017767;28;20045;-55
2021/11/25 07:51:34;;;;;;;30.23;12.43;;;;;;;;;;5004726;28;20037;-57
2021/11/25 07:54:02;;;;;;;27.20;12.13;;;;;;;;;;5000535;28;20120;-55
2021/11/25 07:56:28;;;;;;;30.15;11.68;;;;;;;;;;4984641;28;20046;-54
2021/11/25 07:58:55;;;;;;;26.08;11.73;;;;;;;;;;4990447;28;20056;-55
2021/11/25 08:01:21;;;;;;;27.88;11.40;;;;;;;;;;4985288;28;20180;-52
2021/11/25 08:03:48;;;;;;;32.78;12.45;;;;;;;;;;5001903;28;20026;-57
2021/11/25 08:06:15;;;;;;;27.73;11.68;;;;;;;;;;5001662;28;20127;-57
2021/11/25 08:08:42;;;;;;;29.63;11.10;;;;;;;;;;5004131;28;20037;-53
2021/11/25 08:11:09;;;;;;;27.33;10.80;;;;;;;;;;4987598;28;20041;-53
2021/11/25 08:13:36;;;;;;;26.35;10.85;;;;;;;;;;5003355;28;20034;-52
2021/11/25 08:16:02;;;;;;;29.85;12.20;;;;;;;;;;4992217;28;20404;-57
2021/11/25 08:18:30;;;;;;;28.33;12.13;;;;;;;;;;5004233;28;20045;-57
2021/11/25 08:20:56;;;;;;;28.95;12.50;;;;;;;;;;4991066;28;20085;-57
2021/11/25 08:23:24;;;;;;;31.98;12.25;;;;;;;;;;5007158;28;20041;-50
2021/11/25 08:25:50;;;;;;;35.22;12.45;;;;;;;;;;5001294;28;20123;-53
2021/11/25 08:28:19;;;;;;;31.30;12.18;;;;;;;;;;5004557;28;20052;-56
2021/11/25 08:30:45;;;;;;;27.95;11.55;;;;;;;;;;4986852;28;20062;-55
2021/11/25 08:33:12;;;;;;;21.15;9.93;;;;;;;;;;4986346;28;20046;-57
2021/11/25 08:35:38;;;;;;;20.80;9.70;;;;;;;;;;5000414;28;20047;-52
2021/11/25 08:38:05;;;;;;;29.55;12.30;;;;;;;;;;5004826;28;20038;-58
2021/11/25 08:40:33;;;;;;;25.35;10.70;;;;;;;;;;5001641;28;20095;-54
2021/11/25 08:43:00;;;;;;;30.85;12.88;;;;;;;;;;5001470;28;20135;-56
2021/11/25 08:45:27;;;;;;;29.25;11.23;;;;;;;;;;5004791;28;20135;-57
2021/11/25 08:47:56;;;;;;;25.30;11.57;;;;;;;;;;4983874;28;20042;-58
2021/11/25 08:50:23;;;;;;;25.00;11.90;;;;;;;;;;4985961;28;20049;-59
2021/11/25 08:52:49;;;;;;;30.02;12.90;;;;;;;;;;4985406;28;20139;-58
2021/11/25 08:55:16;;;;;;;21.55;10.27;;;;;;;;;;4985563;28;20057;-55
2021/11/25 08:57:45;;;;;;;25.38;11.10;;;;;;;;;;4993340;28;20077;-57
2021/11/25 09:00:12;;;;;;;26.55;10.35;;;;;;;;;;5004726;28;20050;-55
2021/11/25 09:02:38;;;;;;;26.75;10.93;;;;;;;;;;4991178;28;20116;-53
2021/11/25 09:05:06;;;;;;;27.13;12.15;;;;;;;;;;4984213;28;20157;-55
2021/11/25 09:07:32;;;;;;;21.27;10.05;;;;;;;;;;4977929;28;20133;-57
2021/11/25 09:09:59;;;;;;;24.48;11.50;;;;;;;;;;4983260;28;20046;-56
2021/11/25 09:12:25;;;;;;;23.58;11.30;;;;;;;;;;4983428;28;20042;-54
2021/11/25 09:14:53;;;;;;;28.33;11.93;;;;;;;;;;5001270;28;20065;-56
2021/11/25 09:17:19;;;;;;;29.20;11.17;;;;;;;;;;5000660;28;20038;-55
2021/11/25 09:19:46;;;;;;;22.63;9.82;;;;;;;;;;5004799;28;20061;-55
2021/11/25 09:22:12;;;;;;;25.08;10.88;;;;;;;;;;5000099;28;20060;-55
2021/11/25 09:24:39;;;;;;;22.65;10.55;;;;;;;;;;4984106;28;20057;-54
2021/11/25 09:27:05;;;;;;;21.45;9.75;;;;;;;;;;4996445;28;20070;-54
2021/11/25 09:29:32;;;;;;;25.52;11.77;;;;;;;;;;4983307;28;20092;-55
2021/11/25 09:32:00;;;;;;;28.80;11.27;;;;;;;;;;4984679;28;20054;-56
2021/11/25 09:34:26;;;;;;;26.48;10.70;;;;;;;;;;4994147;28;20173;-57
2021/11/25 09:36:52;;;;;;;25.02;11.63;;;;;;;;;;5005394;28;20038;-56
2021/11/25 09:39:20;;;;;;;26.77;11.82;;;;;;;;;;4976107;28;20054;-53
2021/11/25 09:41:47;;;;;;;28.33;11.68;;;;;;;;;;4964483;28;20034;-54
2021/11/25 09:44:13;;;;;;;31.30;13.18;;;;;;;;;;4981617;28;20038;-57
2021/11/25 09:46:40;;;;;;;33.13;12.68;;;;;;;;;;4985341;28;20046;-55
2021/11/25 09:49:09;;;;;;;23.20;9.85;;;;;;;;;;4981163;28;20417;-55
2021/11/25 09:51:36;;;;;;;22.63;9.68;;;;;;;;;;4983940;28;20148;-55
2021/11/25 09:54:03;;;;;;;25.30;10.95;;;;;;;;;;4978780;28;20039;-50
2021/11/25 09:56:29;;;;;;;29.45;11.88;;;;;;;;;;4984894;28;20045;-55
2021/11/25 09:58:56;;;;;;;26.70;11.48;;;;;;;;;;4980280;28;20124;-54
2021/11/25 10:01:23;;;;;;;26.02;11.40;;;;;;;;;;4984840;28;20030;-56
2021/11/25 10:03:50;;;;;;;25.17;10.30;;;;;;;;;;4993221;28;20045;-54
2021/11/25 10:06:19;;;;;;;22.75;9.43;;;;;;;;;;4984172;28;20050;-53
2021/11/25 10:08:48;;;;;;;27.20;11.77;;;;;;;;;;4985677;28;20046;-54
2021/11/25 10:11:15;;;;;;;22.50;10.23;;;;;;;;;;4997029;28;20076;-52
2021/11/25 10:13:45;;;;;;;26.13;10.55;;;;;;;;;;4986209;28;20094;-58
2021/11/25 10:16:13;;;;;;;27.17;11.85;;;;;;;;;;4998579;28;20042;-57
2021/11/25 10:18:40;;;;;;;;;;;;;;;;;;5006382;28;20042;-58
2021/11/25 10:21:07;;;;;;;27.85;11.00;;;;;;;;;;4986262;28;20027;-55
2021/11/25 10:23:36;;;;;;;32.60;13.70;;;;;;;;;;4985803;28;20054;-55
2021/11/25 10:26:03;;;;;;;25.85;11.57;;;;;;;;;;4969904;28;20170;-53
2021/11/25 10:28:33;;;;;;;29.77;11.85;;;;;;;;;;4964321;28;20055;-55
2021/11/25 10:31:02;;;;;;;26.13;11.70;;;;;;;;;;4971603;28;20038;-56
2021/11/25 10:33:32;;;;;;;29.15;11.90;;;;;;;;;;4990070;28;20042;-57
2021/11/25 10:39:07;;;;;;;21.30;9.20;;;;;;;;;;4989748;28;20030;-55
2021/11/25 10:41:34;;;;;;;26.98;11.07;;;;;;;;;;4989331;28;20049;-53
2021/11/25 10:44:11;;;;;;;28.73;11.45;;;;;;;;;;5003987;28;20052;-55
2021/11/25 10:46:39;;;;;;;32.08;11.90;;;;;;;;;;4998669;28;20061;-57
2021/11/25 10:49:05;;;;;;;29.50;11.88;;;;;;;;;;5004125;28;20041;-57
2021/11/25 10:51:32;;;;;;;36.85;13.10;;;;;;;;;;4985098;28;20070;-57
2021/11/25 10:54:04;;;;;;;32.05;11.35;;;;;;;;;;4966616;28;20181;-57
2021/11/25 10:56:42;;;;;;;25.55;10.20;;;;;;;;;;4975246;28;20033;-54
2021/11/25 10:59:09;;;;;;;32.15;12.55;;;;;;;;;;5005188;28;20096;-57
2021/11/25 11:01:36;;;;;;;32.47;11.60;;;;;;;;;;5001770;28;20049;-56
2021/11/25 11:04:03;;;;;;;27.38;12.50;;;;;;;;;;5004373;28;20030;-56
2021/11/25 11:06:30;;;;;;;29.88;12.13;;;;;;;;;;5003779;28;20123;-53
2021/11/25 11:09:06;;;;;;;24.25;10.40;;;;;;;;;;5007740;28;20060;-55
2021/11/25 11:11:37;;;;;;;34.70;12.77;;;;;;;;;;5002040;28;20037;-55
2021/11/25 11:14:21;;;;;;;31.40;12.35;;;;;;;;;;4987636;28;20054;-55
2021/11/25 11:16:51;;;;;;;31.50;12.77;;;;;;;;;;4982916;28;20113;-56
2021/11/25 11:19:18;;;;;;;35.28;14.23;;;;;;;;;;5024407;28;20058;-52
2021/11/25 11:21:47;;;;;;;37.30;14.52;;;;;;;;;;5006090;28;20030;-56
2021/11/25 11:24:16;;;;;;;36.22;13.23;;;;;;;;;;5003500;28;20129;-58
2021/11/25 11:26:45;;;;;;;27.75;11.52;;;;;;;;;;5020808;28;20437;-55
2021/11/25 11:29:13;;;;;;;;;;;;;;;;;;5021531;28;20041;-56
2021/11/25 11:31:41;;;;;;;38.70;13.15;;;;;;;;;;5004731;28;19925;-57
2021/11/25 11:34:09;;;;;;;32.10;12.77;;;;;;;;;;5002107;28;20177;-58
2021/11/25 11:36:37;;;;;;;35.77;13.63;;;;;;;;;;5006840;28;20089;-55
2021/11/25 11:39:04;;;;;;;33.75;13.90;;;;;;;;;;5003066;28;20034;-57
2021/11/25 11:41:32;;;;;;;22.58;10.32;;;;;;;;;;5007673;28;20041;-54
2021/11/25 11:44:01;;;;;;;37.67;13.38;;;;;;;;;;4992586;28;20086;-58
2021/11/25 11:46:29;;;;;;;38.58;14.18;;;;;;;;;;4989560;28;20038;-56
2021/11/25 11:48:58;;;;;;;41.08;14.23;;;;;;;;;;5010001;28;20139;-57
2021/11/25 11:51:24;;;;;;;38.25;13.35;;;;;;;;;;5007356;28;20056;-56
2021/11/25 11:53:54;;;;;;;33.15;12.23;;;;;;;;;;4996854;28;20050;-55
2021/11/25 11:56:30;;;;;;;30.88;13.02;;;;;;;;;;4983384;28;20062;-55
2021/11/25 11:58:59;;;;;;;33.65;13.48;;;;;;;;;;4986814;28;20060;-55
2021/11/25 12:01:27;;;;;;;31.83;13.55;;;;;;;;;;5004105;28;20061;-55
2021/11/25 12:03:54;;;;;;;26.30;9.98;;;;;;;;;;5002359;28;20066;-57
2021/11/25 12:06:31;;;;;;;38.78;13.57;;;;;;;;;;5023279;28;20050;-57
2021/11/25 12:08:58;;;;;;;32.60;13.10;;;;;;;;;;5003148;28;20061;-56
2021/11/25 12:11:36;;;;;;;34.08;13.77;;;;;;;;;;5022248;28;20132;-56
2021/11/25 12:14:08;;;;;;;34.22;12.98;;;;;;;;;;5002576;28;20042;-56
2021/11/25 12:16:36;;;;;;;35.67;12.32;;;;;;;;;;5004899;28;20038;-56
2021/11/25 12:19:05;;;;;;;30.60;12.75;;;;;;;;;;5021419;28;20156;-53
2021/11/25 12:21:32;;;;;;;32.30;12.40;;;;;;;;;;5023137;28;20160;-55
2021/11/25 12:24:13;;;;;;;30.40;12.20;;;;;;;;;;5043247;28;20041;-58
2021/11/25 12:26:58;;;;;;;33.30;11.13;;;;;;;;;;5002878;28;20045;-54
2021/11/25 12:29:44;;;;;;;30.30;11.00;;;;;;;;;;5006250;28;20038;-56
2021/11/25 12:32:29;;;;;;;37.72;11.70;;;;;;;;;;5003823;28;20038;-54
2021/11/25 12:34:57;;;;;;;31.42;12.15;;;;;;;;;;5002202;28;20041;-57
2021/11/25 12:37:42;;;;;;;33.07;12.63;;;;;;;;;;5003435;28;20065;-57
2021/11/25 12:40:09;;;;;;;30.92;10.68;;;;;;;;;;5000785;28;20283;-57
2021/11/25 12:42:35;;;;;;;29.00;10.68;;;;;;;;;;5005809;28;20100;-53
2021/11/25 12:45:03;;;;;;;30.85;11.40;;;;;;;;;;5005259;28;20098;-54
2021/11/25 12:47:30;;;;;;;35.88;10.95;;;;;;;;;;5023229;28;20135;-57
2021/11/25 12:50:11;;;;;;;28.73;10.70;;;;;;;;;;5042126;28;20069;-53
2021/11/25 12:52:37;;;;;;;33.95;12.10;;;;;;;;;;5002021;28;20087;-55
2021/11/25 12:55:05;;;;;;;30.23;11.98;;;;;;;;;;5024117;28;20046;-57
2021/11/25 12:57:46;;;;;;;30.25;10.90;;;;;;;;;;5001175;28;20042;-57
2021/11/25 13:00:18;;;;;;;26.02;10.45;;;;;;;;;;5005019;28;20042;-57
2021/11/25 13:02:45;;;;;;;28.17;9.70;;;;;;;;;;5000268;28;20056;-55
2021/11/25 13:05:13;;;;;;;31.02;10.50;;;;;;;;;;5004176;28;20041;-57
2021/11/25 13:07:51;;;;;;;39.28;10.25;;;;;;;;;;5001614;28;20080;-56
2021/11/25 13:10:22;;;;;;;22.02;7.97;;;;;;;;;;5022802;28;20045;-59
2021/11/25 13:12:49;;;;;;;32.38;10.02;;;;;;;;;;5002315;28;20053;-57
2021/11/25 13:15:16;;;;;;;28.20;9.68;;;;;;;;;;5021994;28;20049;-58
2021/11/25 13:17:55;;;;;;;26.10;8.25;;;;;;;;;;5019413;28;20051;-55
2021/11/25 13:20:36;;;;;;;23.23;8.18;;;;;;;;;;5003397;28;20038;-57
2021/11/25 13:23:04;;;;;;;23.95;9.25;;;;;;;;;;5000740;28;20038;-57
2021/11/25 13:25:30;;;;;;;26.33;8.15;;;;;;;;;;5005899;28;20042;-57
2021/11/25 13:27:57;;;;;;;22.83;7.93;;;;;;;;;;5001371;28;20046;-56
2021/11/25 13:30:23;;;;;;;23.17;7.47;;;;;;;;;;5021686;28;20050;-56
2021/11/25 13:32:51;;;;;;;25.92;7.35;;;;;;;;;;5024671;28;20052;-57
2021/11/25 13:35:19;;;;;;;19.98;7.22;;;;;;;;;;5003703;28;20069;-58
2021/11/25 13:37:50;;;;;;;20.67;6.97;;;;;;;;;;5000841;28;20045;-57
2021/11/25 13:40:17;;;;;;;23.45;6.70;;;;;;;;;;5003307;28;20082;-57
2021/11/25 13:42:46;;;;;;;17.85;6.15;;;;;;;;;;5003060;28;20126;-58
2021/11/25 13:45:19;;;;;;;16.70;5.53;;;;;;;;;;5040857;28;20095;-58
2021/11/25 13:47:45;;;;;;;17.15;5.18;;;;;;;;;;5017312;28;20029;-56
2021/11/25 13:50:13;;;;;;;18.35;5.57;;;;;;;;;;4988010;28;20070;-56
2021/11/25 13:52:44;;;;;;;15.85;4.82;;;;;;;;;;5003810;28;20030;-57
2021/11/25 13:55:11;;;;;;;17.45;4.85;;;;;;;;;;5003731;28;20065;-57
2021/11/25 13:57:39;;;;;;;20.27;5.07;;;;;;;;;;5004100;28;20053;-55
2021/11/25 14:00:06;;;;;;;15.57;4.93;;;;;;;;;;5001452;28;20052;-57
2021/11/25 14:02:33;;;;;;;19.40;5.05;;;;;;;;;;5004377;28;20131;-56
2021/11/25 14:05:00;;;;;;;16.80;4.85;;;;;;;;;;5000030;28;20061;-56
2021/11/25 14:07:28;;;;;;;13.57;4.78;;;;;;;;;;5005477;28;20045;-55
2021/11/25 14:10:05;;;;;;;13.98;4.28;;;;;;;;;;5000402;28;20056;-56
2021/11/25 14:12:31;;;;;;;14.88;5.57;;;;;;;;;;5003911;28;20054;-55
2021/11/25 14:14:58;;;;;;;14.43;5.05;;;;;;;;;;5000843;28;20046;-57
2021/11/25 14:17:25;;;;;;;15.45;4.72;;;;;;;;;;5003953;28;20038;-56
2021/11/25 14:19:53;;;;;;;13.65;3.60;;;;;;;;;;5000399;28;20046;-58
2021/11/25 14:22:20;;;;;;;14.82;3.35;;;;;;;;;;5002319;28;20123;-58
2021/11/25 14:24:47;;;;;;;13.27;3.22;;;;;;;;;;5019874;28;20123;-56
2021/11/25 14:30:07;;;;;;;12.52;3.08;;;;;;;;;;5002308;28;20059;-57
2021/11/25 14:32:35;;;;;;;7.15;2.42;;;;;;;;;;5023307;28;20038;-58